Create Tblcommutelog Verified Points Advance Search
| # | Trip ID | Id Commuter | Trip Date | Trip Num | Current Lat | Current Lng | Delta Distance | Current Time | Activity | Activity Confidence | Current Speed | |
|---|---|---|---|---|---|---|---|---|---|---|---|---|
| 69301 | 250501_738572_16603589_1641 | 738572 | (not set) | (not set) | 38.902804230371 | -77.007804936761 | 0.3641 | 2025-05-01 20:44:51.717 | on_bicycle | 100 | -0.44703925898772 | |
| 69302 | 250501_738572_16603589_1641 | 738572 | (not set) | (not set) | 38.902403663451 | -77.005549242515 | 0.496 | 2025-05-01 20:44:51.923 | on_bicycle | 100 | -0.44703925898772 | |
| 69303 | 250501_762844_16629696_1505 | 762844 | (not set) | (not set) | 39.309343029933 | -76.618480746019 | 40.2107 | 2025-05-01 20:44:55.342 | in_vehicle | 100 | 4.7564977156294 | |
| 69304 | 250501_784108_16652594_1632 | 784108 | (not set) | (not set) | 39.06045236735 | -77.15552717517 | 5.3187 | 2025-05-01 20:44:57.2 | in_vehicle | 100 | 7.5281411213533 | |
| 69305 | 250501_763194_16630042_1636 | 763194 | (not set) | (not set) | 39.288753223231 | -76.617688854754 | 0.7717 | 2025-05-01 20:44:58.387 | on_bicycle | 100 | 1.5959301545862 | |
| 69306 | 250501_769309_16636345_1613 | 769309 | (not set) | (not set) | 38.938284125724 | -77.268974076266 | 15.3804 | 2025-05-01 20:44:59.178 | in_vehicle | 100 | 13.254714028986 | |
| 69307 | 250501_767309_16652209_1636 | 767309 | (not set) | (not set) | 38.938810138982 | -77.060352238252 | 0 | 2025-05-01 20:44:59.444 | in_vehicle | 100 | -0.44703925898772 | |
| 69308 | 250501_767309_16652209_1636 | 767309 | (not set) | (not set) | 38.939043415242 | -77.060482337848 | 0 | 2025-05-01 20:44:59.448 | in_vehicle | 100 | -0.44703925898772 | |
| 69309 | 250501_784608_16652580_1601 | 784608 | (not set) | (not set) | 38.715179543616 | -77.213964911662 | 18.1432 | 2025-05-01 20:45:00.252 | on_foot | 100 | 0.88066734020582 | |
| 69310 | 250501_784654_16652634_1535 | 784654 | (not set) | (not set) | 38.960818427174 | -76.654248638697 | 22.6948 | 2025-05-01 20:45:00.282 | in_vehicle | 100 | 12.454513755398 | |
| 69311 | 250501_780809_16648486_1606 | 780809 | (not set) | (not set) | 38.944286400193 | -77.289802206993 | 16.2146 | 2025-05-01 20:45:03.303 | in_vehicle | 100 | 12.195230985185 | |
| 69312 | 250501_753800_16619976_1641 | 753800 | (not set) | (not set) | 38.92953356732 | -77.013756841354 | 0.1123 | 2025-05-01 20:45:04.402 | on_foot | 100 | -0.44703925898772 | |
| 69313 | 250501_775454_16642917_1622 | 775454 | (not set) | (not set) | 39.120383890137 | -77.164333520554 | 5.096 | 2025-05-01 20:45:06.432 | on_foot | 100 | 0.44703925898772 | |
| 69314 | 250501_781117_0_1626 | 781117 | (not set) | (not set) | 38.902090671767 | -77.003369070805 | 0.9191 | 2025-05-01 20:45:07.344 | on_bicycle | 100 | 1.9714431321359 | |
| 69315 | 250501_783758_16651529_1627 | 783758 | (not set) | (not set) | 38.858650036378 | -77.347958242782 | 0.9089 | 2025-05-01 20:45:07.683 | in_vehicle | 100 | -0.44703925898772 | |
| 69316 | 250501_770910_16453504_1612 | 770910 | (not set) | (not set) | 38.821665072736 | -77.048463736861 | 7.6326 | 2025-05-01 20:45:07.946 | in_vehicle | 100 | -0.44703925898772 | |
| 69317 | 250501_784108_16652594_1632 | 784108 | (not set) | (not set) | 39.062394603377 | -77.156078226185 | 5.4559 | 2025-05-01 20:45:08.146 | in_vehicle | 100 | 9.5800513201069 | |
| 69318 | 250501_762844_16629696_1505 | 762844 | (not set) | (not set) | 39.308534693752 | -76.616927265321 | 40.3109 | 2025-05-01 20:45:10.398 | in_vehicle | 100 | 5.1990665820272 | |
| 69319 | 250501_769309_16636345_1613 | 769309 | (not set) | (not set) | 38.940549313063 | -77.271840781727 | 15.6001 | 2025-05-01 20:45:11.193 | in_vehicle | 100 | 13.075898325391 | |
| 69320 | 250501_761201_16627990_1633 | 761201 | (not set) | (not set) | 38.885134398765 | -77.060226208038 | 2.0525 | 2025-05-01 20:45:11.396 | in_vehicle | 100 | 2.6509428057972 |